Time;durP1;ratioP1;P1;durP2;ratioP2;P2;SDS_P1;SDS_P2;PMS_P1;PMS_P2;Temp;Humidity;BMP_temperature;BMP_pressure;BME280_temperature;BME280_humidity;BME280_pressure;Samples;Min_cycle;Max_cycle;Signal;HPM_P1;HPM_P2
2021/06/18 00:00:39;;;;;;;5.40;3.10;;;;;;;24.98;49.84;100262.20;1782128;79;21065;-64
2021/06/18 00:03:05;;;;;;;3.62;2.87;;;;;;;24.96;49.79;100256.20;1798954;79;21041;-62
2021/06/18 00:05:31;;;;;;;5.45;3.30;;;;;;;24.93;49.75;100254.79;1789560;79;21072;-63
2021/06/18 00:07:58;;;;;;;4.72;3.20;;;;;;;24.90;49.62;100251.78;1779498;80;21712;-64
2021/06/18 00:10:25;;;;;;;6.25;3.20;;;;;;;24.88;49.51;100251.20;1784075;79;21089;-63
2021/06/18 00:12:54;;;;;;;4.05;3.30;;;;;;;24.85;49.47;100247.62;1786850;80;21026;-63
2021/06/18 00:15:20;;;;;;;5.60;3.00;;;;;;;24.83;49.41;100249.77;1793737;79;21496;-63
2021/06/18 00:17:48;;;;;;;5.00;2.80;;;;;;;24.81;49.45;100249.20;1810476;79;21065;-63
2021/06/18 00:20:15;;;;;;;5.10;2.90;;;;;;;24.79;49.37;100245.36;1803737;79;21109;-63
2021/06/18 00:22:42;;;;;;;3.27;2.80;;;;;;;24.70;49.37;100249.03;1789208;79;20982;-62
2021/06/18 00:25:10;;;;;;;3.98;2.95;;;;;;;24.73;49.38;100255.33;1766550;79;21513;-63
2021/06/18 00:27:37;;;;;;;3.37;2.62;;;;;;;24.69;49.35;100246.04;1795265;79;21018;-63
2021/06/18 00:30:06;;;;;;;3.67;2.58;;;;;;;24.67;49.30;100248.73;1797367;79;21038;-62
2021/06/18 00:32:32;;;;;;;3.60;3.00;;;;;;;24.64;49.26;100239.70;1799811;79;21109;-63
2021/06/18 00:34:59;;;;;;;7.62;2.90;;;;;;;24.62;49.32;100247.28;1780130;79;21010;-62
2021/06/18 00:37:25;;;;;;;4.58;2.92;;;;;;;24.60;49.23;100249.43;1800325;79;20974;-63
2021/06/18 00:39:52;;;;;;;2.95;2.42;;;;;;;24.57;49.13;100249.91;1797220;79;21031;-63
2021/06/18 00:42:18;;;;;;;3.08;2.85;;;;;;;24.55;49.14;100247.98;1791761;79;21104;-63
2021/06/18 00:44:45;;;;;;;3.10;2.77;;;;;;;24.52;49.20;100254.20;1780318;79;21141;-64
2021/06/18 00:47:20;;;;;;;6.15;3.02;;;;;;;24.49;49.14;100256.55;1808906;79;22085;-64
2021/06/18 00:49:47;;;;;;;4.30;3.00;;;;;;;24.47;49.06;100256.83;1797636;79;21008;-64
2021/06/18 00:52:16;;;;;;;4.05;2.62;;;;;;;24.45;49.05;100252.69;1794193;79;21056;-64
2021/06/18 00:54:44;;;;;;;3.75;3.02;;;;;;;24.42;49.03;100247.23;1797279;79;21109;-64
2021/06/18 00:57:10;;;;;;;4.83;2.85;;;;;;;24.40;49.04;100248.02;1798727;79;23255;-63
2021/06/18 00:59:38;;;;;;;3.75;2.67;;;;;;;24.38;49.03;100245.23;1790575;79;21021;-64
2021/06/18 01:02:05;;;;;;;3.10;2.80;;;;;;;24.36;49.07;100238.72;1785343;79;21045;-64
2021/06/18 01:04:32;;;;;;;3.10;2.80;;;;;;;24.32;49.11;100237.03;1803453;79;21022;-64
2021/06/18 01:07:17;;;;;;;3.77;3.15;;;;;;;24.30;49.08;100243.78;1769721;80;21088;-64
2021/06/18 01:10:15;;;;;;;5.25;2.65;;;;;;;24.26;49.13;100243.97;1792079;79;21139;-64
2021/06/18 01:13:32;;;;;;;5.72;2.60;;;;;;;24.22;49.17;100242.81;1793356;79;20998;-65
2021/06/18 01:16:35;;;;;;;6.50;3.72;;;;;;;24.17;49.25;100247.64;1781075;79;21649;-65
2021/06/18 01:19:13;;;;;;;4.12;2.52;;;;;;;24.11;49.25;100244.55;1789921;79;21596;-63
2021/06/18 01:21:45;;;;;;;8.60;3.25;;;;;;;24.05;49.29;100236.86;1786400;79;21101;-62
2021/06/18 01:36:27;;;;;;;3.92;2.72;;;;;;;25.67;46.27;100226.87;1789016;78;22710;-65
2021/06/18 01:38:54;;;;;;;6.17;2.60;;;;;;;25.78;45.67;100234.61;1821573;78;20970;-66
2021/06/18 01:41:22;;;;;;;4.50;2.50;;;;;;;25.61;45.80;100230.11;1826336;78;21116;-64
2021/06/18 01:43:50;;;;;;;5.87;2.70;;;;;;;25.44;45.99;100234.27;1822616;78;21055;-66
2021/06/18 01:46:19;;;;;;;5.92;2.90;;;;;;;25.29;46.16;100229.47;1816872;78;20981;-66
2021/06/18 01:48:48;;;;;;;3.60;2.42;;;;;;;25.15;46.32;100230.91;1809327;78;21011;-66
2021/06/18 01:51:15;;;;;;;3.15;2.35;;;;;;;25.02;46.52;100228.56;1788077;80;21520;-67
2021/06/18 01:53:43;;;;;;;3.10;2.58;;;;;;;24.88;46.69;100222.12;1779954;80;21173;-67
2021/06/18 01:56:16;;;;;;;6.78;2.47;;;;;;;24.78;46.82;100230.13;1785240;80;21492;-66
2021/06/18 01:58:46;;;;;;;7.47;2.87;;;;;;;24.68;46.97;100224.01;1785221;79;21017;-67
2021/06/18 02:01:14;;;;;;;6.87;2.70;;;;;;;24.58;47.11;100219.80;1787900;80;21052;-67
2021/06/18 02:03:42;;;;;;;5.20;2.80;;;;;;;24.50;47.26;100213.41;1792771;78;20973;-66
2021/06/18 02:06:10;;;;;;;6.15;2.87;;;;;;;24.42;47.36;100210.57;1805235;78;21126;-66
2021/06/18 02:08:38;;;;;;;2.37;2.17;;;;;;;24.34;47.48;100209.64;1787832;80;21047;-67
2021/06/18 02:11:05;;;;;;;6.85;2.20;;;;;;;24.27;47.53;100215.77;1788235;80;20997;-65
2021/06/18 02:13:32;;;;;;;3.00;2.35;;;;;;;24.20;47.60;100215.91;1787976;80;21555;-65
2021/06/18 02:16:00;;;;;;;3.60;2.27;;;;;;;24.13;47.64;100212.02;1787961;79;21534;-65
2021/06/18 02:18:26;;;;;;;7.03;2.30;;;;;;;24.08;47.77;100214.64;1787963;80;21128;-66
2021/06/18 02:20:55;;;;;;;4.35;2.50;;;;;;;24.02;47.89;100205.31;1787883;80;21028;-66
2021/06/18 02:23:22;;;;;;;3.67;2.50;;;;;;;23.96;47.93;100208.47;1788025;80;21062;-67
2021/06/18 02:25:49;;;;;;;6.65;2.87;;;;;;;23.92;48.00;100210.84;1787881;80;21066;-66
2021/06/18 02:28:15;;;;;;;4.55;2.42;;;;;;;23.88;48.04;100215.66;1803166;78;21055;-66
2021/06/18 02:30:42;;;;;;;2.10;1.90;;;;;;;23.84;48.06;100218.58;1795396;78;21069;-65
2021/06/18 02:33:12;;;;;;;5.00;2.55;;;;;;;23.80;48.13;100220.95;1787957;80;20988;-65
2021/06/18 02:35:39;;;;;;;5.72;2.60;;;;;;;23.75;48.21;100218.92;1787556;79;21075;-68
2021/06/18 02:38:08;;;;;;;3.27;2.15;;;;;;;23.70;48.27;100224.27;1787507;80;21039;-65
2021/06/18 02:40:35;;;;;;;2.52;2.20;;;;;;;23.66;48.25;100229.90;1787447;80;21015;-65
2021/06/18 02:43:03;;;;;;;4.17;2.47;;;;;;;23.63;48.31;100228.20;1787182;80;21125;-66
2021/06/18 02:45:29;;;;;;;3.98;2.33;;;;;;;23.61;48.32;100231.15;1787273;79;21499;-65
2021/06/18 02:48:03;;;;;;;3.85;2.40;;;;;;;23.58;48.52;100226.20;1787222;79;21020;-65
2021/06/18 02:50:46;;;;;;;5.30;2.75;;;;;;;23.56;48.47;100239.17;1783632;80;21598;-65
2021/06/18 02:53:50;;;;;;;8.08;2.87;;;;;;;23.53;48.60;100243.74;1787390;80;21598;-65
2021/06/18 02:56:33;;;;;;;5.62;2.05;;;;;;;23.48;48.68;100240.92;1787221;80;21141;-65
2021/06/18 02:59:23;;;;;;;;;;;;;;;23.42;48.82;100237.83;1789808;78;21025;-66
2021/06/18 03:01:51;;;;;;;5.70;2.00;;;;;;;;;;1794294;78;20193;-66
2021/06/18 03:04:23;;;;;;;2.70;2.20;;;;;;;23.24;49.11;100241.00;1819571;78;21503;-65
2021/06/18 03:07:00;;;;;;;6.85;2.27;;;;;;;23.25;49.24;100254.02;1789973;78;21558;-65
2021/06/18 03:09:32;;;;;;;5.85;2.85;;;;;;;23.24;49.19;100249.67;1787187;80;21897;-65
2021/06/18 03:12:00;;;;;;;6.67;2.47;;;;;;;23.22;49.24;100248.55;1787259;80;21016;-65
2021/06/18 03:14:29;;;;;;;3.80;2.25;;;;;;;23.22;49.22;100250.41;1784575;80;21009;-66
2021/06/18 03:17:00;;;;;;;4.30;2.98;;;;;;;23.21;49.33;100256.38;1787199;80;21009;-66
2021/06/18 03:19:32;;;;;;;2.52;2.20;;;;;;;23.20;49.25;100253.39;1787748;80;20988;-66
2021/06/18 03:22:01;;;;;;;3.75;2.33;;;;;;;23.20;49.15;100253.89;1791599;78;21862;-65
2021/06/18 03:24:30;;;;;;;7.58;2.35;;;;;;;23.20;49.23;100257.45;1819641;78;21040;-66
2021/06/18 03:26:57;;;;;;;4.12;2.50;;;;;;;23.20;49.22;100249.83;1765928;80;21534;-65
2021/06/18 03:29:26;;;;;;;20.37;16.25;;;;;;;23.19;49.11;100251.73;1787227;80;21083;-65
2021/06/18 03:31:55;;;;;;;13.58;10.90;;;;;;;23.18;49.08;100255.52;1787260;80;20996;-67
2021/06/18 03:34:23;;;;;;;7.47;6.12;;;;;;;23.19;49.17;100259.86;1787192;80;21635;-66
2021/06/18 03:36:50;;;;;;;6.42;3.87;;;;;;;23.18;49.19;100258.73;1757477;80;21012;-65
2021/06/18 03:39:17;;;;;;;3.67;3.27;;;;;;;23.14;49.16;100253.81;1787377;80;21531;-64
2021/06/18 03:41:44;;;;;;;7.95;2.92;;;;;;;23.14;49.16;100253.81;1796191;78;21015;-66
2021/06/18 03:44:10;;;;;;;3.20;2.25;;;;;;;23.14;49.06;100252.96;1819423;78;21056;-65
2021/06/18 03:46:37;;;;;;;2.47;2.27;;;;;;;23.13;49.07;100253.50;1806339;78;21231;-65
2021/06/18 03:49:03;;;;;;;5.40;2.65;;;;;;;23.10;49.19;100248.58;1805902;78;21000;-65
2021/06/18 03:51:29;;;;;;;3.52;2.25;;;;;;;23.10;49.01;100247.22;1786125;78;21530;-66
2021/06/18 03:53:58;;;;;;;5.80;2.33;;;;;;;23.11;48.96;100250.75;1787400;79;21028;-65
2021/06/18 03:56:24;;;;;;;6.78;2.55;;;;;;;23.13;48.94;100254.04;1787117;79;21527;-65
2021/06/18 03:58:51;;;;;;;4.97;2.47;;;;;;;23.15;48.94;100259.50;1787258;80;21100;-67
2021/06/18 04:01:17;;;;;;;3.77;2.10;;;;;;;23.16;48.90;100254.39;1787462;80;21004;-66
2021/06/18 04:03:46;;;;;;;3.27;2.55;;;;;;;23.17;48.92;100256.56;1787151;80;21028;-67
2021/06/18 04:06:12;;;;;;;6.70;2.30;;;;;;;23.16;48.92;100257.64;1787372;80;21452;-66
2021/06/18 04:08:40;;;;;;;4.58;2.20;;;;;;;23.18;48.85;100263.64;1809994;78;21024;-66
2021/06/18 04:11:08;;;;;;;4.15;2.30;;;;;;;23.19;48.84;100265.27;1787382;80;21888;-64
2021/06/18 04:13:36;;;;;;;4.42;2.00;;;;;;;23.19;48.83;100261.75;1787058;80;21008;-65
2021/06/18 04:16:06;;;;;;;2.58;1.92;;;;;;;23.19;48.89;100262.56;1787304;80;21087;-64
2021/06/18 04:18:33;;;;;;;2.55;2.12;;;;;;;23.18;48.88;100261.44;1786068;80;20988;-65
2021/06/18 04:21:11;;;;;;;4.53;2.15;;;;;;;23.19;48.89;100256.33;1787151;79;21067;-66
2021/06/18 04:23:38;;;;;;;2.40;2.10;;;;;;;23.19;48.91;100263.92;1760581;78;21118;-66
2021/06/18 04:26:05;;;;;;;3.02;2.22;;;;;;;23.21;49.03;100261.80;1766904;80;21016;-66
2021/06/18 04:28:32;;;;;;;4.87;2.10;;;;;;;23.24;48.88;100270.81;1759557;80;21079;-67
2021/06/18 04:30:58;;;;;;;6.33;2.20;;;;;;;23.26;49.01;100263.27;1762668;78;21103;-66
2021/06/18 04:33:24;;;;;;;2.70;1.98;;;;;;;23.28;49.04;100265.74;1764748;78;21771;-66
2021/06/18 04:35:51;;;;;;;4.15;1.95;;;;;;;23.32;48.86;100261.48;1778910;78;21854;-66
2021/06/18 04:38:17;;;;;;;4.85;1.82;;;;;;;23.37;48.87;100268.34;1787010;78;21088;-66
2021/06/18 04:40:44;;;;;;;4.05;2.27;;;;;;;23.45;48.78;100261.22;1786076;78;21024;-67
2021/06/18 04:43:10;;;;;;;2.55;2.05;;;;;;;23.53;48.61;100264.08;1756696;80;21088;-67
2021/06/18 04:45:36;;;;;;;3.72;1.70;;;;;;;23.55;48.64;100270.90;1787214;78;21048;-67
2021/06/18 04:48:05;;;;;;;4.22;2.00;;;;;;;23.58;48.73;100268.23;1755179;78;21891;-66
2021/06/18 04:50:31;;;;;;;5.22;1.82;;;;;;;23.60;48.69;100271.52;1762027;80;21065;-67
2021/06/18 04:53:00;;;;;;;6.08;2.25;;;;;;;23.64;48.71;100273.22;1786614;78;21111;-67
2021/06/18 04:55:27;;;;;;;3.90;1.82;;;;;;;23.68;48.67;100264.37;1786447;78;21063;-67
2021/06/18 04:57:54;;;;;;;5.47;2.40;;;;;;;23.75;48.75;100256.08;1786524;78;21087;-66
2021/06/18 05:00:23;;;;;;;4.45;2.05;;;;;;;23.79;48.57;100259.17;1786915;79;22341;-67
2021/06/18 05:02:48;;;;;;;5.28;2.00;;;;;;;23.81;48.64;100258.39;1777631;78;21108;-66
2021/06/18 05:05:15;;;;;;;2.42;2.15;;;;;;;23.86;48.66;100257.14;1786521;78;20992;-67
2021/06/18 05:07:41;;;;;;;4.50;2.00;;;;;;;23.90;48.57;100256.39;1786924;78;21019;-67
2021/06/18 05:10:11;;;;;;;5.42;2.12;;;;;;;23.93;48.93;100254.56;1785851;78;21079;-66
2021/06/18 05:12:38;;;;;;;9.20;2.52;;;;;;;23.98;48.66;100254.36;1781460;78;21189;-67
2021/06/18 05:15:07;;;;;;;4.25;3.55;;;;;;;23.99;48.61;100253.28;1784736;78;20997;-66
2021/06/18 05:17:33;;;;;;;4.37;3.05;;;;;;;23.98;48.54;100256.53;1777480;78;21004;-66
2021/06/18 05:20:00;;;;;;;5.28;2.90;;;;;;;23.97;48.58;100253.55;1787067;78;21095;-66
2021/06/18 05:22:27;;;;;;;4.00;2.25;;;;;;;23.97;48.59;100245.92;1787044;78;21047;-66
2021/06/18 05:24:53;;;;;;;4.62;2.27;;;;;;;24.01;48.62;100238.93;1776096;78;21140;-65
2021/06/18 05:27:20;;;;;;;10.40;2.60;;;;;;;24.05;48.43;100242.28;1787061;78;21069;-66
2021/06/18 05:29:46;;;;;;;4.45;2.17;;;;;;;24.03;48.46;100238.99;1768568;80;20993;-66
2021/06/18 05:32:13;;;;;;;2.70;2.22;;;;;;;24.02;48.53;100237.88;1782665;78;21099;-67
2021/06/18 05:34:40;;;;;;;5.28;2.42;;;;;;;24.02;48.66;100233.27;1784082;78;21499;-66
2021/06/18 05:37:06;;;;;;;2.80;2.12;;;;;;;24.03;48.76;100232.21;1768699;79;21095;-67
2021/06/18 05:39:33;;;;;;;3.15;1.98;;;;;;;24.03;48.82;100228.66;1782832;78;21040;-66
2021/06/18 05:42:01;;;;;;;6.58;2.17;;;;;;;24.05;48.94;100231.94;1786362;79;21551;-67
2021/06/18 05:44:27;;;;;;;6.22;2.52;;;;;;;24.08;49.02;100239.06;1786818;78;22051;-67
2021/06/18 05:46:53;;;;;;;2.77;2.30;;;;;;;24.13;49.01;100234.27;1779577;78;21051;-66
2021/06/18 05:49:20;;;;;;;4.17;1.98;;;;;;;24.19;48.96;100241.97;1779169;80;21096;-67
2021/06/18 05:51:46;;;;;;;4.45;1.87;;;;;;;24.22;49.07;100243.66;1786534;78;20965;-67
2021/06/18 05:54:14;;;;;;;3.70;2.10;;;;;;;24.27;48.92;100243.73;1787334;80;21527;-66
2021/06/18 05:56:40;;;;;;;4.78;2.42;;;;;;;24.29;48.95;100243.48;1786602;78;21021;-66
2021/06/18 05:59:07;;;;;;;5.05;2.17;;;;;;;24.31;48.91;100239.45;1787165;80;21056;-65
2021/06/18 06:01:34;;;;;;;8.30;2.72;;;;;;;24.34;48.98;100252.54;1782736;78;21931;-66
2021/06/18 06:04:00;;;;;;;5.28;2.27;;;;;;;24.39;49.06;100245.54;1786551;78;21024;-66
2021/06/18 06:06:27;;;;;;;3.77;2.25;;;;;;;24.44;49.20;100247.80;1786970;78;21059;-69
2021/06/18 06:08:55;;;;;;;3.02;2.12;;;;;;;24.49;49.27;100246.53;1765245;78;21058;-67
2021/06/18 06:11:22;;;;;;;3.00;2.00;;;;;;;24.57;49.35;100240.41;1786679;78;21051;-66
2021/06/18 06:13:50;;;;;;;4.05;2.08;;;;;;;24.63;49.76;100239.44;1779762;78;21312;-66
2021/06/18 06:16:19;;;;;;;3.47;2.35;;;;;;;24.69;50.19;100242.51;1773691;78;21480;-66
2021/06/18 06:18:45;;;;;;;2.92;1.85;;;;;;;24.77;50.47;100242.62;1787327;78;21012;-66
2021/06/18 06:21:11;;;;;;;5.12;3.05;;;;;;;24.83;50.79;100242.43;1787195;78;21018;-65
2021/06/18 06:23:38;;;;;;;3.98;2.20;;;;;;;24.88;50.90;100241.15;1787385;78;21019;-65
2021/06/18 06:26:05;;;;;;;5.65;2.12;;;;;;;24.95;50.47;100240.14;1787136;80;21112;-67
2021/06/18 06:28:32;;;;;;;7.25;2.30;;;;;;;25.02;50.39;100247.59;1787147;80;21118;-66
2021/06/18 06:30:59;;;;;;;4.58;2.22;;;;;;;25.08;50.30;100247.39;1786871;78;22209;-67
2021/06/18 06:33:25;;;;;;;3.22;2.42;;;;;;;25.14;50.11;100246.91;1770160;78;21100;-65
2021/06/18 06:35:52;;;;;;;2.58;2.10;;;;;;;25.16;50.14;100239.33;1786012;78;21186;-65
2021/06/18 06:38:20;;;;;;;7.17;2.75;;;;;;;25.22;50.08;100235.62;1785258;78;21110;-65
2021/06/18 06:40:49;;;;;;;6.22;2.55;;;;;;;25.29;50.06;100239.53;1785412;78;21448;-66
2021/06/18 06:43:15;;;;;;;4.50;2.77;;;;;;;25.35;49.98;100233.62;1781659;78;21100;-65
2021/06/18 06:45:42;;;;;;;5.92;2.50;;;;;;;25.40;49.91;100236.38;1785128;78;21094;-65
2021/06/18 06:48:09;;;;;;;8.23;3.10;;;;;;;25.44;49.67;100228.83;1787000;78;21457;-66
2021/06/18 06:50:37;;;;;;;4.45;2.62;;;;;;;25.48;49.64;100234.04;1787057;80;21001;-67
2021/06/18 06:53:05;;;;;;;7.33;3.08;;;;;;;25.54;49.55;100237.64;1766745;78;21050;-66
2021/06/18 06:55:31;;;;;;;8.25;3.30;;;;;;;25.59;49.65;100236.86;1778870;78;21556;-68
2021/06/18 06:57:58;;;;;;;13.25;5.80;;;;;;;25.63;49.76;100232.03;1772514;78;21076;-65
2021/06/18 07:00:25;;;;;;;16.15;6.28;;;;;;;25.68;49.91;100236.15;1776412;78;21134;-66
2021/06/18 07:02:51;;;;;;;9.23;4.85;;;;;;;25.74;49.98;100233.49;1784190;78;21049;-67
2021/06/18 07:05:18;;;;;;;11.50;5.22;;;;;;;25.77;50.07;100230.23;1785739;78;21012;-69
2021/06/18 07:07:44;;;;;;;8.93;3.58;;;;;;;25.80;49.96;100234.63;1782429;78;21013;-66
2021/06/18 07:10:12;;;;;;;9.80;3.90;;;;;;;25.83;49.87;100225.97;1786630;78;21495;-65
2021/06/18 07:12:38;;;;;;;8.88;3.30;;;;;;;25.86;49.95;100229.55;1784774;79;21126;-67
2021/06/18 07:15:08;;;;;;;6.33;3.12;;;;;;;25.90;50.20;100225.22;1777853;78;21079;-66
2021/06/18 07:17:35;;;;;;;5.55;3.40;;;;;;;25.96;49.72;100222.56;1786945;78;21091;-68
2021/06/18 07:20:03;;;;;;;5.67;2.80;;;;;;;25.99;49.38;100222.05;1739725;80;21060;-66
2021/06/18 07:22:33;;;;;;;5.00;2.80;;;;;;;26.03;49.16;100220.45;1779357;78;21369;-67
2021/06/18 07:25:01;;;;;;;3.33;2.70;;;;;;;26.06;49.22;100212.59;1783542;78;21041;-67
2021/06/18 07:27:27;;;;;;;4.65;2.55;;;;;;;26.10;48.99;100218.34;1753457;80;21146;-69
2021/06/18 07:29:54;;;;;;;5.65;2.90;;;;;;;26.14;48.84;100221.38;1786937;80;21480;-68
2021/06/18 07:32:23;;;;;;;5.00;2.80;;;;;;;26.15;48.80;100211.56;1786710;78;21016;-67
2021/06/18 07:34:50;;;;;;;2.83;2.40;;;;;;;26.18;48.73;100207.52;1789119;78;21039;-68
2021/06/18 07:37:19;;;;;;;10.15;2.77;;;;;;;26.21;48.54;100214.63;1787352;78;20983;-67
2021/06/18 07:39:46;;;;;;;3.02;2.37;;;;;;;26.26;48.58;100213.84;1796527;78;21135;-67
2021/06/18 07:42:13;;;;;;;4.33;2.37;;;;;;;26.28;48.68;100211.67;1777884;79;21017;-67
2021/06/18 07:44:39;;;;;;;6.20;2.50;;;;;;;26.33;48.51;100210.88;1790088;79;21584;-69
2021/06/18 07:47:06;;;;;;;5.33;3.20;;;;;;;26.37;48.49;100214.20;1771018;78;21536;-69
2021/06/18 07:49:34;;;;;;;4.40;2.62;;;;;;;26.40;48.46;100211.48;1790842;79;21090;-69
2021/06/18 07:52:01;;;;;;;3.15;2.50;;;;;;;26.44;48.64;100218.88;1771434;78;21135;-69
2021/06/18 07:54:27;;;;;;;4.78;2.60;;;;;;;26.47;48.40;100215.62;1780515;78;21083;-67
2021/06/18 07:56:55;;;;;;;5.55;2.30;;;;;;;26.52;48.39;100210.77;1785526;79;21018;-66
2021/06/18 07:59:22;;;;;;;6.90;2.30;;;;;;;26.57;48.37;100209.96;1794623;78;21003;-68
2021/06/18 08:01:49;;;;;;;5.45;2.10;;;;;;;26.59;48.24;100218.17;1795665;78;21574;-68
2021/06/18 08:04:16;;;;;;;8.45;2.55;;;;;;;26.61;48.11;100216.55;1801123;78;21196;-66
2021/06/18 08:06:42;;;;;;;5.85;3.00;;;;;;;26.64;48.29;100225.58;1820103;78;21004;-68
2021/06/18 08:09:09;;;;;;;4.25;2.50;;;;;;;26.66;48.15;100221.50;1826133;78;21008;-67
2021/06/18 08:11:36;;;;;;;7.75;2.65;;;;;;;26.70;48.28;100229.97;1823514;78;20996;-66
2021/06/18 08:14:04;;;;;;;7.28;2.30;;;;;;;26.71;48.33;100231.59;1785197;78;21037;-69
2021/06/18 08:16:31;;;;;;;5.72;2.47;;;;;;;26.75;48.26;100233.26;1781477;78;22297;-67
2021/06/18 08:18:57;;;;;;;4.30;2.27;;;;;;;26.78;48.35;100237.64;1764163;79;21000;-66
2021/06/18 08:21:24;;;;;;;8.80;2.50;;;;;;;26.81;48.21;100238.48;1796559;79;21507;-68
2021/06/18 08:23:51;;;;;;;5.75;2.20;;;;;;;26.85;48.19;100230.06;1789760;79;21091;-67
2021/06/18 08:26:19;;;;;;;3.40;2.30;;;;;;;26.90;48.17;100233.89;1783941;78;21013;-67
2021/06/18 08:28:46;;;;;;;3.35;2.17;;;;;;;26.93;47.89;100237.47;1782399;78;21135;-67
2021/06/18 08:31:13;;;;;;;3.22;2.02;;;;;;;26.94;47.85;100237.17;1790484;79;21079;-70
2021/06/18 08:33:42;;;;;;;9.73;2.45;;;;;;;26.98;47.76;100232.02;1804951;78;21009;-69
2021/06/18 08:36:08;;;;;;;2.50;2.30;;;;;;;27.01;48.03;100236.41;1800302;78;21036;-69
2021/06/18 08:38:35;;;;;;;8.10;2.33;;;;;;;27.05;47.86;100235.33;1810381;78;21569;-70
2021/06/18 08:41:05;;;;;;;4.72;2.30;;;;;;;27.09;47.58;100233.71;1806602;78;21129;-67
2021/06/18 08:43:32;;;;;;;5.37;2.65;;;;;;;27.10;47.61;100231.28;1792069;78;21459;-67
2021/06/18 08:46:01;;;;;;;4.53;2.47;;;;;;;27.13;47.29;100245.72;1794133;78;21367;-68
2021/06/18 08:48:32;;;;;;;5.53;2.55;;;;;;;27.16;47.23;100245.20;1797636;78;21004;-68
2021/06/18 08:50:59;;;;;;;4.20;2.30;;;;;;;27.19;47.33;100239.20;1808018;78;21110;-69
2021/06/18 08:53:28;;;;;;;3.20;2.40;;;;;;;27.21;47.33;100234.30;1804649;78;22066;-66
2021/06/18 08:55:54;;;;;;;4.15;2.65;;;;;;;27.23;46.98;100225.30;1791119;78;20976;-69
2021/06/18 08:58:22;;;;;;;5.17;2.72;;;;;;;27.27;47.03;100243.35;1798718;78;21050;-66
2021/06/18 09:00:51;;;;;;;4.45;2.37;;;;;;;27.30;46.87;100233.84;1798759;79;21000;-67
2021/06/18 09:03:45;;;;;;;4.33;2.45;;;;;;;27.32;46.75;100231.11;1795490;79;21114;-67
2021/06/18 09:06:32;;;;;;;3.40;2.17;;;;;;;27.36;46.67;100236.85;1794819;78;21135;-66
2021/06/18 09:09:22;;;;;;;6.12;2.90;;;;;;;27.37;46.84;100235.23;1791506;78;21000;-66
2021/06/18 09:11:57;;;;;;;3.10;2.37;;;;;;;27.40;47.09;100236.59;1798825;79;21063;-66
2021/06/18 09:14:32;;;;;;;5.35;2.87;;;;;;;27.42;47.11;100242.59;1797224;79;20999;-67
2021/06/18 09:17:19;;;;;;;3.27;2.50;;;;;;;27.45;47.32;100237.98;1793029;79;21038;-66
2021/06/18 09:20:00;;;;;;;2.83;2.45;;;;;;;27.49;47.21;100245.06;1798953;79;21172;-65
2021/06/18 09:22:40;;;;;;;4.62;2.40;;;;;;;27.52;46.96;100232.25;1778993;78;21035;-66
2021/06/18 09:25:13;;;;;;;6.22;2.85;;;;;;;27.54;47.12;100236.90;1798352;79;21059;-67
2021/06/18 09:27:43;;;;;;;4.80;2.30;;;;;;;27.56;47.10;100229.27;1782048;79;21119;-67
2021/06/18 09:30:23;;;;;;;6.87;2.50;;;;;;;27.60;47.06;100228.47;1787775;79;21114;-66
2021/06/18 09:33:11;;;;;;;4.22;2.83;;;;;;;27.63;47.00;100226.55;1780740;78;21159;-67
2021/06/18 09:35:37;;;;;;;5.65;2.47;;;;;;;27.66;46.90;100230.64;1798880;78;20991;-66
2021/06/18 09:38:05;;;;;;;4.62;2.30;;;;;;;27.70;47.04;100232.28;1796586;78;21036;-67
2021/06/18 09:40:31;;;;;;;3.98;2.52;;;;;;;27.72;46.92;100228.74;1809885;78;21040;-67
2021/06/18 09:43:11;;;;;;;4.65;2.60;;;;;;;27.78;46.95;100227.69;1796108;78;21693;-68
2021/06/18 09:45:39;;;;;;;4.20;2.80;;;;;;;27.83;46.85;100224.94;1774446;79;21045;-65
2021/06/18 09:48:14;;;;;;;3.12;2.40;;;;;;;27.88;47.11;100223.63;1792736;79;21658;-67
2021/06/18 09:50:45;;;;;;;3.22;2.80;;;;;;;27.94;47.26;100214.34;1795917;79;21550;-68
2021/06/18 09:53:24;;;;;;;3.80;2.37;;;;;;;28.00;47.07;100213.24;1790925;78;21037;-68
2021/06/18 09:56:10;;;;;;;5.10;2.35;;;;;;;28.04;46.98;100211.60;1800119;78;21036;-68
2021/06/18 09:58:41;;;;;;;3.35;2.45;;;;;;;28.11;47.04;100196.87;1789331;79;21697;-68
2021/06/18 10:01:22;;;;;;;3.02;2.60;;;;;;;28.15;47.11;100211.62;1789293;78;20993;-69
2021/06/18 10:04:13;;;;;;;4.08;2.70;;;;;;;28.19;46.86;100202.59;1791160;79;21067;-68
2021/06/18 10:06:41;;;;;;;3.17;2.60;;;;;;;28.24;46.76;100194.96;1803893;78;21027;-69
2021/06/18 10:09:10;;;;;;;2.87;2.67;;;;;;;28.28;46.37;100191.11;1807953;78;21125;-69
2021/06/18 10:11:39;;;;;;;2.70;2.27;;;;;;;28.32;46.20;100188.94;1796278;79;21321;-68
2021/06/18 10:14:06;;;;;;;3.65;2.35;;;;;;;28.37;45.89;100201.20;1785534;78;21100;-68
2021/06/18 10:16:32;;;;;;;2.85;2.40;;;;;;;28.43;45.61;100197.91;1789322;79;21043;-69
2021/06/18 10:18:59;;;;;;;4.35;2.45;;;;;;;28.48;45.36;100191.64;1794888;79;21582;-68
2021/06/18 10:21:31;;;;;;;5.47;2.70;;;;;;;28.54;44.86;100191.93;1781382;78;21584;-67
2021/06/18 10:24:01;;;;;;;3.90;2.70;;;;;;;28.58;44.63;100196.55;1796840;79;21097;-67
2021/06/18 10:26:28;;;;;;;2.65;2.45;;;;;;;28.56;44.32;100181.53;1793813;78;21590;-68
2021/06/18 10:28:58;;;;;;;5.33;2.70;;;;;;;28.68;44.26;100197.07;1795952;78;21041;-68
2021/06/18 10:31:28;;;;;;;3.30;2.65;;;;;;;28.74;43.78;100204.72;1795292;78;21128;-68
2021/06/18 10:34:13;;;;;;;3.47;2.40;;;;;;;28.77;43.56;100200.88;1800076;78;21076;-68
2021/06/18 10:36:39;;;;;;;4.92;2.70;;;;;;;28.80;43.41;100200.34;1781859;79;21981;-67
2021/06/18 10:39:18;;;;;;;3.60;2.80;;;;;;;28.84;42.92;100207.44;1782524;78;21052;-67
2021/06/18 10:41:54;;;;;;;3.00;2.67;;;;;;;28.87;42.64;100197.84;1757767;78;21059;-69
2021/06/18 10:44:42;;;;;;;3.25;2.40;;;;;;;28.90;42.58;100197.30;1795897;78;21060;-68
2021/06/18 10:47:36;;;;;;;5.00;2.47;;;;;;;28.94;42.77;100188.80;1782260;78;21043;-69
2021/06/18 10:50:03;;;;;;;7.97;2.50;;;;;;;28.97;42.75;100190.41;1783381;78;21184;-68
2021/06/18 10:52:38;;;;;;;3.98;2.62;;;;;;;29.00;42.06;100185.76;1787080;78;21051;-67
2021/06/18 10:55:06;;;;;;;2.87;2.67;;;;;;;29.04;42.43;100184.66;1772740;78;21048;-68
2021/06/18 10:57:33;;;;;;;3.10;2.35;;;;;;;29.08;42.38;100177.52;1784123;78;21075;-70
2021/06/18 11:00:15;;;;;;;3.37;3.05;;;;;;;29.14;42.25;100175.05;1786388;78;21031;-67
2021/06/18 11:02:43;;;;;;;4.27;2.80;;;;;;;29.18;42.44;100177.48;1786137;80;21116;-69
2021/06/18 11:05:24;;;;;;;4.47;2.70;;;;;;;29.21;42.53;100174.20;1753644;78;21035;-69
2021/06/18 11:07:50;;;;;;;6.05;3.02;;;;;;;29.26;42.41;100184.28;1786314;80;21060;-67
2021/06/18 11:10:30;;;;;;;3.37;2.45;;;;;;;29.31;42.91;100173.88;1784140;78;21030;-67
2021/06/18 11:13:04;;;;;;;6.25;2.35;;;;;;;29.39;43.11;100167.80;1782785;78;21064;-69
2021/06/18 11:15:42;;;;;;;6.45;2.75;;;;;;;29.44;43.35;100170.52;1786053;78;21794;-68
2021/06/18 11:18:21;;;;;;;4.53;3.33;;;;;;;29.49;42.97;100176.50;1786353;79;21579;-67
2021/06/18 11:20:49;;;;;;;5.37;2.87;;;;;;;29.53;42.92;100172.09;1785238;78;21634;-68
2021/06/18 11:23:23;;;;;;;;;;;;;;;29.57;43.03;100170.42;1789756;79;21047;-68
2021/06/18 11:26:09;;;;;;;6.70;3.00;;;;;;;29.59;43.00;100170.95;1786396;78;20466;-68
2021/06/18 11:28:39;;;;;;;3.62;2.80;;;;;;;29.55;43.36;100176.20;1788151;78;21000;-69
2021/06/18 11:31:16;;;;;;;4.05;2.67;;;;;;;29.56;43.38;100161.39;1790214;78;21040;-68
2021/06/18 11:33:45;;;;;;;3.42;2.90;;;;;;;29.59;43.45;100171.79;1786241;78;21503;-68
2021/06/18 11:36:24;;;;;;;5.28;3.15;;;;;;;29.63;43.48;100168.46;1786991;80;20998;-67
2021/06/18 11:38:55;;;;;;;7.40;2.98;;;;;;;29.64;43.45;100180.50;1786200;78;21000;-68
2021/06/18 11:41:27;;;;;;;3.83;2.65;;;;;;;29.64;43.36;100179.70;1786764;78;21726;-68
2021/06/18 11:43:57;;;;;;;5.83;2.72;;;;;;;29.65;43.23;100179.94;1787014;79;21079;-67
2021/06/18 11:46:26;;;;;;;7.47;2.80;;;;;;;29.66;43.54;100181.03;1786511;78;21020;-68
2021/06/18 11:48:57;;;;;;;3.72;2.70;;;;;;;29.73;43.99;100172.55;1787016;79;21060;-68
2021/06/18 11:51:27;;;;;;;4.25;2.83;;;;;;;29.78;43.68;100185.62;1786618;78;21064;-68